aviador You're here:

WBGS Decoded Metar

SIBU in MALAYSIA
Report Time2018-01-16 20:00:00
UTC Time2018-01-16 21:04:24
Flight Rules vfr VFR
WindVRB at 01 kt
Visibility9999 m
Phenomena:N/A
Clouds:Few 005 Hf
Scattered 016 Hf
Broken 150 Hf
Expected CloudBase > 400 ft AGL from Temp-Dew spread
Ceiling15,000 ft
Temp24°C (ISA +9)
Dew Point23°C (94% RH)
QNH1007 hPa
Density Alt1,647 ft
Elevation26 ft
Report Wrong Elevation
Raw Report
METAR WBGS 162000Z VRB01KT 9999 FEW005 SCT016 BKN150 24/23 Q1007=

Extra information for WBGS:More info

Metar Taf Metar & Taf Last 4 Metars F.Rules Stats Wind Profile Meteogram Temp Stats Airport Information Weather charts Add Link Nearby VenuesMetar ALERT Operation Metar Decoded Social comments